createdAt,value
2022-09-28T00:00:27.758Z,97932.00
2022-09-28T00:00:59.139Z,97943.09
2022-09-28T00:01:30.663Z,97936.75
2022-09-28T00:02:02.162Z,97927.09
2022-09-28T00:02:33.835Z,97936.09
2022-09-28T00:03:05.297Z,97932.88
2022-09-28T00:03:36.725Z,97923.88
2022-09-28T00:04:08.044Z,97922.84
2022-09-28T00:04:39.475Z,97927.97
2022-09-28T00:05:10.809Z,97927.91
2022-09-28T00:05:42.190Z,97933.50
2022-09-28T00:06:13.906Z,97928.34
2022-09-28T00:06:45.337Z,97925.88
2022-09-28T00:07:16.731Z,97927.34
2022-09-28T00:07:48.087Z,97924.69
2022-09-28T00:08:19.445Z,97934.97
2022-09-28T00:08:50.969Z,97929.25
2022-09-28T00:09:22.355Z,97929.88
2022-09-28T00:09:53.785Z,97931.72
2022-09-28T00:10:25.153Z,97927.41
2022-09-28T00:10:56.625Z,97924.56
2022-09-28T00:11:28.088Z,97929.25
2022-09-28T00:11:59.518Z,97924.31
2022-09-28T00:12:31.005Z,97923.75
2022-09-28T00:13:02.434Z,97926.22
2022-09-28T00:13:33.988Z,97932.16
2022-09-28T00:14:05.548Z,97926.22
2022-09-28T00:14:36.967Z,97923.78
2022-09-28T00:15:08.540Z,97922.31
2022-09-28T00:15:39.927Z,97926.47
2022-09-28T00:16:14.588Z,97923.78
2022-09-28T00:16:46.020Z,97914.72
2022-09-28T00:17:17.429Z,97912.69
2022-09-28T00:17:48.832Z,97919.84
2022-09-28T00:18:20.317Z,97907.38
2022-09-28T00:18:51.726Z,97915.38
2022-09-28T00:19:23.036Z,97909.97
2022-09-28T00:19:55.783Z,97913.06
2022-09-28T00:20:27.160Z,97917.97
2022-09-28T00:21:08.068Z,97914.47
2022-09-28T00:21:39.837Z,97913.66
2022-09-28T00:22:11.181Z,97908.94
2022-09-28T00:22:42.540Z,97911.47
2022-09-28T00:23:13.887Z,97909.69
2022-09-28T00:23:45.246Z,97912.19
2022-09-28T00:24:16.582Z,97915.75
2022-09-28T00:24:47.927Z,97918.66
2022-09-28T00:25:19.267Z,97910.47
2022-09-28T00:25:50.686Z,97905.75
2022-09-28T00:26:22.124Z,97908.44
2022-09-28T00:26:54.193Z,97912.94
2022-09-28T00:27:25.706Z,97910.09
2022-09-28T00:27:57.149Z,97909.72
2022-09-28T00:28:28.528Z,97906.84
2022-09-28T00:29:00.455Z,97912.19
2022-09-28T00:29:32.555Z,97914.66
2022-09-28T00:30:04.242Z,97904.63
2022-09-28T00:30:35.606Z,97908.28
2022-09-28T00:31:07.096Z,97908.84
2022-09-28T00:31:38.533Z,97912.63
2022-09-28T00:32:10.302Z,97909.78
2022-09-28T00:32:41.638Z,97901.59
2022-09-28T00:33:13.056Z,97908.97
2022-09-28T00:33:44.615Z,97915.94
2022-09-28T00:34:16.033Z,97907.13
2022-09-28T00:34:47.428Z,97904.47
2022-09-28T00:35:18.729Z,97904.63
2022-09-28T00:35:57.117Z,97907.94
2022-09-28T00:36:29.194Z,97913.09
2022-09-28T00:37:00.882Z,97907.94
2022-09-28T00:37:32.295Z,97904.06
2022-09-28T00:38:03.707Z,97901.59
2022-09-28T00:38:35.226Z,97900.28
2022-09-28T00:39:07.287Z,97907.28
2022-09-28T00:39:38.674Z,97907.75
2022-09-28T00:40:10.135Z,97906.00
2022-09-28T00:40:41.512Z,97904.00
2022-09-28T00:41:12.854Z,97901.13
2022-09-28T00:41:44.473Z,97898.31
2022-09-28T00:42:19.364Z,97901.31
2022-09-28T00:42:50.744Z,97900.09
2022-09-28T00:43:22.503Z,97901.31
2022-09-28T00:43:54.487Z,97899.66
2022-09-28T00:44:25.856Z,97896.56
2022-09-28T00:44:57.641Z,97901.31
2022-09-28T00:45:29.039Z,97901.31
2022-09-28T00:46:02.222Z,97898.31
2022-09-28T00:46:33.850Z,97899.94
2022-09-28T00:47:14.108Z,97897.91
2022-09-28T00:47:49.247Z,97902.03
2022-09-28T00:48:20.637Z,97901.84
2022-09-28T00:48:53.064Z,97905.50
2022-09-28T00:49:28.889Z,97903.88
2022-09-28T00:50:14.609Z,97903.88
2022-09-28T00:50:46.046Z,97908.19
2022-09-28T00:51:17.930Z,97897.13
2022-09-28T00:51:49.407Z,97898.75
2022-09-28T00:52:39.374Z,97894.22
2022-09-28T00:53:14.720Z,97899.38
2022-09-28T00:53:46.120Z,97900.28
2022-09-28T00:54:17.505Z,97896.25
2022-09-28T00:54:48.906Z,97896.69
2022-09-28T00:55:22.634Z,97899.19
2022-09-28T00:55:57.418Z,97896.69
2022-09-28T00:56:29.226Z,97901.22
2022-09-28T00:57:00.685Z,97895.88
2022-09-28T00:57:32.121Z,97896.69
2022-09-28T00:58:03.900Z,97898.75
2022-09-28T00:58:36.524Z,97899.38
2022-09-28T00:59:08.010Z,97900.84
2022-09-28T00:59:39.396Z,97893.47
2022-09-28T01:00:11.211Z,97894.47
2022-09-28T01:00:42.703Z,97893.22
2022-09-28T01:01:14.241Z,97885.84
2022-09-28T01:01:45.670Z,97894.22
2022-09-28T01:02:17.164Z,97891.56
2022-09-28T01:02:48.736Z,97898.75
2022-09-28T01:03:20.113Z,97901.22
2022-09-28T01:03:51.584Z,97895.88
2022-09-28T01:04:25.897Z,97896.69
2022-09-28T01:04:59.400Z,97894.84
2022-09-28T01:05:30.848Z,97896.69
2022-09-28T01:06:03.031Z,97894.47
2022-09-28T01:06:34.824Z,97889.31
2022-09-28T01:07:06.418Z,97896.31
2022-09-28T01:07:37.890Z,97902.84
2022-09-28T01:08:09.242Z,97895.88
2022-09-28T01:08:40.696Z,97902.22
2022-09-28T01:09:12.126Z,97890.56
2022-09-28T01:09:43.491Z,97901.22
2022-09-28T01:10:14.890Z,97895.03
2022-09-28T01:10:46.394Z,97885.22
2022-09-28T01:11:18.382Z,97892.56
2022-09-28T01:11:49.806Z,97895.41
2022-09-28T01:12:21.222Z,97887.66
2022-09-28T01:12:52.662Z,97885.78
2022-09-28T01:13:24.084Z,97890.94
2022-09-28T01:13:55.862Z,97889.72
2022-09-28T01:14:27.283Z,97891.75
2022-09-28T01:14:58.676Z,97886.59
2022-09-28T01:15:30.113Z,97888.28
2022-09-28T01:16:24.588Z,97892.56
2022-09-28T01:16:59.134Z,97894.97
2022-09-28T01:17:49.802Z,97893.34
2022-09-28T01:18:39.515Z,97895.66
2022-09-28T01:19:16.631Z,97884.09
2022-09-28T01:19:50.672Z,97890.75
2022-09-28T01:20:30.954Z,97895.22
2022-09-28T01:21:10.632Z,97890.94
2022-09-28T01:21:52.148Z,97889.28
2022-09-28T01:22:30.879Z,97888.28
2022-09-28T01:23:21.223Z,97895.22
2022-09-28T01:23:58.506Z,97893.13
2022-09-28T01:24:35.403Z,97891.28
2022-09-28T01:25:13.938Z,97894.97
2022-09-28T01:25:45.968Z,97900.66
2022-09-28T01:26:19.637Z,97893.91
2022-09-28T01:27:00.153Z,97889.19
2022-09-28T01:27:36.191Z,97894.97
2022-09-28T01:28:09.312Z,97898.00
2022-09-28T01:28:40.709Z,97893.34
2022-09-28T01:29:18.386Z,97895.16
2022-09-28T01:30:05.185Z,97888.00
2022-09-28T01:30:39.198Z,97896.19
2022-09-28T01:31:11.835Z,97893.34
2022-09-28T01:31:44.542Z,97900.28
2022-09-28T01:32:28.119Z,97899.03
2022-09-28T01:33:05.735Z,97893.34
2022-09-28T01:33:38.338Z,97893.34
2022-09-28T01:34:17.037Z,97896.63
2022-09-28T01:35:05.468Z,97898.66
2022-09-28T01:35:37.598Z,97893.34
2022-09-28T01:36:12.643Z,97890.66
2022-09-28T01:36:46.820Z,97893.34
2022-09-28T01:37:18.541Z,97893.13
2022-09-28T01:37:54.209Z,97890.00
2022-09-28T01:38:27.155Z,97894.97
2022-09-28T01:39:00.421Z,97893.34
2022-09-28T01:39:35.910Z,97890.84
2022-09-28T01:40:07.515Z,97894.53
2022-09-28T01:40:38.997Z,97894.16
2022-09-28T01:41:10.453Z,97891.66
2022-09-28T01:41:42.253Z,97887.16
2022-09-28T01:42:18.643Z,97898.00
2022-09-28T01:42:51.072Z,97890.00
2022-09-28T01:43:43.280Z,97890.00
2022-09-28T01:44:15.708Z,97890.19
2022-09-28T01:44:47.580Z,97887.34
2022-09-28T01:45:21.864Z,97885.72
2022-09-28T01:45:54.503Z,97878.53
2022-09-28T01:46:30.587Z,97889.38
2022-09-28T01:47:02.075Z,97894.72
2022-09-28T01:47:34.018Z,97887.72
2022-09-28T01:48:05.682Z,97886.91
2022-09-28T01:48:39.021Z,97891.44
2022-09-28T01:49:42.774Z,97892.25
2022-09-28T01:50:14.825Z,97889.19
2022-09-28T01:50:46.296Z,97883.25
2022-09-28T01:51:19.483Z,97884.44
2022-09-28T01:51:51.976Z,97885.47
2022-09-28T01:52:25.273Z,97883.81
2022-09-28T01:53:00.664Z,97890.38
2022-09-28T01:53:40.943Z,97891.63
2022-09-28T01:54:12.977Z,97884.63
2022-09-28T01:54:55.393Z,97886.03
2022-09-28T01:55:26.744Z,97880.53
2022-09-28T01:55:59.210Z,97882.63
2022-09-28T01:56:32.503Z,97887.09
2022-09-28T01:57:12.221Z,97886.09
2022-09-28T01:57:50.505Z,97888.75
2022-09-28T01:58:23.284Z,97885.06
2022-09-28T01:58:55.462Z,97887.09
2022-09-28T01:59:29.753Z,97888.75
2022-09-28T02:00:10.545Z,97887.09
2022-09-28T02:00:42.828Z,97887.09
2022-09-28T02:01:31.088Z,97890.81
2022-09-28T02:02:06.429Z,97888.13
2022-09-28T02:02:39.692Z,97892.25
2022-09-28T02:03:12.180Z,97885.84
2022-09-28T02:03:54.936Z,97888.75
2022-09-28T02:04:46.575Z,97892.06
2022-09-28T02:05:24.974Z,97878.72
2022-09-28T02:06:00.118Z,97882.81
2022-09-28T02:06:33.198Z,97885.84
2022-09-28T02:07:08.171Z,97878.47
2022-09-28T02:07:44.089Z,97887.09
2022-09-28T02:08:23.294Z,97884.25
2022-09-28T02:08:56.024Z,97884.63
2022-09-28T02:09:38.348Z,97881.16
2022-09-28T02:10:16.866Z,97880.91
2022-09-28T02:10:49.847Z,97889.53
2022-09-28T02:11:21.491Z,97884.94
2022-09-28T02:11:54.400Z,97875.13
2022-09-28T02:12:27.879Z,97883.75
2022-09-28T02:13:03.461Z,97886.22
2022-09-28T02:13:38.959Z,97883.75
2022-09-28T02:14:11.079Z,97887.88
2022-09-28T02:14:43.118Z,97892.19
2022-09-28T02:15:19.011Z,97887.66
2022-09-28T02:15:51.401Z,97889.97
2022-09-28T02:16:29.697Z,97888.13
2022-09-28T02:17:01.227Z,97897.13
2022-09-28T02:17:32.744Z,97891.63
2022-09-28T02:18:04.161Z,97885.47
2022-09-28T02:18:35.658Z,97890.38
2022-09-28T02:19:10.960Z,97887.47
2022-09-28T02:19:42.412Z,97889.56
2022-09-28T02:20:13.771Z,97881.75
2022-09-28T02:20:47.022Z,97886.66
2022-09-28T02:21:26.337Z,97882.53
2022-09-28T02:21:59.387Z,97889.13
2022-09-28T02:22:30.844Z,97888.13
2022-09-28T02:23:02.550Z,97882.38
2022-09-28T02:23:34.555Z,97883.44
2022-09-28T02:24:07.244Z,97885.00
2022-09-28T02:24:39.431Z,97883.44
2022-09-28T02:25:11.915Z,97883.63
2022-09-28T02:25:44.768Z,97883.44
2022-09-28T02:26:16.157Z,97883.19
2022-09-28T02:26:47.680Z,97880.31
2022-09-28T02:27:21.714Z,97886.09
2022-09-28T02:27:53.076Z,97880.75
2022-09-28T02:28:24.469Z,97885.06
2022-09-28T02:28:55.796Z,97887.72
2022-09-28T02:29:27.239Z,97879.94
2022-09-28T02:29:58.654Z,97885.91
2022-09-28T02:30:30.243Z,97880.94
2022-09-28T02:31:01.652Z,97884.25
2022-09-28T02:31:33.143Z,97878.28
2022-09-28T02:32:04.606Z,97889.13
2022-09-28T02:32:36.676Z,97880.53
2022-09-28T02:33:10.920Z,97882.81
2022-09-28T02:33:42.732Z,97879.94
2022-09-28T02:34:14.162Z,97880.13
2022-09-28T02:34:45.559Z,97875.19
2022-09-28T02:35:17.811Z,97879.69
2022-09-28T02:35:49.228Z,97886.22
2022-09-28T02:36:20.600Z,97879.69
2022-09-28T02:36:52.022Z,97880.31
2022-09-28T02:37:23.426Z,97881.16
2022-09-28T02:37:54.880Z,97883.38
2022-09-28T02:38:26.312Z,97879.88
2022-09-28T02:38:57.705Z,97878.22
2022-09-28T02:39:29.132Z,97881.72
2022-09-28T02:40:00.585Z,97877.47
2022-09-28T02:40:32.648Z,97889.91
2022-09-28T02:41:05.533Z,97882.34
2022-09-28T02:41:36.942Z,97879.69
2022-09-28T02:42:21.086Z,97883.63
2022-09-28T02:42:53.035Z,97884.25
2022-09-28T02:43:31.655Z,97884.44
2022-09-28T02:44:05.920Z,97887.72
2022-09-28T02:44:49.882Z,97884.19
2022-09-28T02:45:33.486Z,97888.50
2022-09-28T02:46:13.552Z,97884.00
2022-09-28T02:46:47.060Z,97880.94
2022-09-28T02:47:22.511Z,97879.72
2022-09-28T02:47:56.957Z,97887.09
2022-09-28T02:48:43.496Z,97888.94
2022-09-28T02:49:21.878Z,97884.19
2022-09-28T02:50:12.133Z,97888.13
2022-09-28T02:50:43.529Z,97888.94
2022-09-28T02:51:18.568Z,97880.94
2022-09-28T02:52:05.307Z,97884.44
2022-09-28T02:52:36.634Z,97888.13
2022-09-28T02:53:12.486Z,97887.47
2022-09-28T02:53:43.880Z,97880.91
2022-09-28T02:54:21.351Z,97884.81
2022-09-28T02:55:11.392Z,97886.81
2022-09-28T02:55:42.728Z,97887.47
2022-09-28T02:56:32.817Z,97881.28
2022-09-28T02:57:04.188Z,97886.63
2022-09-28T02:58:04.963Z,97884.56
2022-09-28T02:58:42.855Z,97885.84
2022-09-28T02:59:33.117Z,97890.16
2022-09-28T03:00:05.720Z,97884.81
2022-09-28T03:00:42.232Z,97885.84
2022-09-28T03:01:19.528Z,97890.53
2022-09-28T03:02:12.209Z,97884.19
2022-09-28T03:02:55.627Z,97883.81
2022-09-28T03:03:32.846Z,97885.38
2022-09-28T03:04:13.088Z,97881.47
2022-09-28T03:05:05.714Z,97890.28
2022-09-28T03:05:55.483Z,97884.38
2022-09-28T03:06:29.274Z,97887.47
2022-09-28T03:07:07.744Z,97886.66
2022-09-28T03:07:41.991Z,97889.13
2022-09-28T03:08:19.269Z,97882.09
2022-09-28T03:08:55.841Z,97886.22
2022-09-28T03:09:29.614Z,97890.94
2022-09-28T03:10:11.532Z,97887.25
2022-09-28T03:11:18.384Z,97886.22
2022-09-28T03:11:51.238Z,97894.28
2022-09-28T03:12:22.711Z,97887.66
2022-09-28T03:12:54.175Z,97888.72
2022-09-28T03:13:25.593Z,97891.81
2022-09-28T03:13:56.986Z,97889.75
2022-09-28T03:14:28.399Z,97887.72
2022-09-28T03:15:06.634Z,97887.94
2022-09-28T03:15:38.091Z,97895.47
2022-09-28T03:16:18.146Z,97889.13
2022-09-28T03:16:49.632Z,97886.03
2022-09-28T03:17:21.063Z,97893.47
2022-09-28T03:17:52.412Z,97896.13
2022-09-28T03:18:23.885Z,97892.81
2022-09-28T03:18:55.274Z,97896.31
2022-09-28T03:19:30.071Z,97892.81
2022-09-28T03:20:01.859Z,97894.28
2022-09-28T03:20:33.359Z,97894.28
2022-09-28T03:21:04.904Z,97895.09
2022-09-28T03:21:36.422Z,97896.94
2022-09-28T03:22:07.833Z,97897.56
2022-09-28T03:22:39.227Z,97893.66
2022-09-28T03:23:24.325Z,97898.16
2022-09-28T03:23:56.651Z,97899.00
2022-09-28T03:24:27.965Z,97896.31
2022-09-28T03:24:59.451Z,97901.84
2022-09-28T03:25:30.833Z,97897.94
2022-09-28T03:26:03.172Z,97903.09
2022-09-28T03:26:34.606Z,97898.16
2022-09-28T03:27:06.031Z,97898.81
2022-09-28T03:27:37.429Z,97896.03
2022-09-28T03:28:08.836Z,97903.28
2022-09-28T03:28:40.206Z,97902.47
2022-09-28T03:29:11.663Z,97897.31
2022-09-28T03:29:43.060Z,97896.91
2022-09-28T03:30:14.492Z,97902.22
2022-09-28T03:30:45.903Z,97898.16
2022-09-28T03:31:17.425Z,97898.53
2022-09-28T03:31:48.943Z,97901.19
2022-09-28T03:32:20.395Z,97894.84
2022-09-28T03:32:58.555Z,97900.81
2022-09-28T03:33:29.947Z,97895.84
2022-09-28T03:34:01.322Z,97895.84
2022-09-28T03:34:32.708Z,97891.75
2022-09-28T03:35:04.332Z,97892.38
2022-09-28T03:35:35.701Z,97897.31
2022-09-28T03:36:07.047Z,97899.75
2022-09-28T03:36:38.436Z,97897.72
2022-09-28T03:37:09.832Z,97894.84
2022-09-28T03:37:41.301Z,97895.84
2022-09-28T03:38:12.718Z,97886.84
2022-09-28T03:38:44.064Z,97893.19
2022-09-28T03:39:15.506Z,97890.34
2022-09-28T03:39:46.919Z,97890.34
2022-09-28T03:40:18.341Z,97889.28
2022-09-28T03:40:53.070Z,97891.94
2022-09-28T03:41:24.460Z,97887.25
2022-09-28T03:41:55.813Z,97888.50
2022-09-28T03:42:27.198Z,97888.31
2022-09-28T03:42:59.922Z,97893.00
2022-09-28T03:43:31.383Z,97890.53
2022-09-28T03:44:02.954Z,97896.69
2022-09-28T03:44:34.354Z,97891.19
2022-09-28T03:45:06.122Z,97892.56
2022-09-28T03:45:37.556Z,97893.38
2022-09-28T03:46:09.035Z,97879.25
2022-09-28T03:46:40.517Z,97887.25
2022-09-28T03:47:11.945Z,97894.59
2022-09-28T03:47:46.721Z,97892.56
2022-09-28T03:48:24.020Z,97895.41
2022-09-28T03:48:57.290Z,97896.00
2022-09-28T03:49:28.599Z,97886.56
2022-09-28T03:50:00.126Z,97896.84
2022-09-28T03:50:31.566Z,97885.81
2022-09-28T03:51:03.873Z,97888.91
2022-09-28T03:51:35.245Z,97881.47
2022-09-28T03:52:06.599Z,97895.22
2022-09-28T03:52:38.004Z,97889.91
2022-09-28T03:53:09.428Z,97888.91
2022-09-28T03:53:40.865Z,97890.09
2022-09-28T03:54:12.292Z,97890.28
2022-09-28T03:54:48.303Z,97893.78
2022-09-28T03:55:20.526Z,97891.13
2022-09-28T03:55:51.957Z,97887.88
2022-09-28T03:56:23.299Z,97886.22
2022-09-28T03:56:54.718Z,97891.94
2022-09-28T03:57:26.180Z,97889.09
2022-09-28T03:57:57.567Z,97887.00
2022-09-28T03:58:29.011Z,97885.81
2022-09-28T03:59:02.497Z,97888.06
2022-09-28T03:59:33.950Z,97888.06
2022-09-28T04:00:05.564Z,97890.53
2022-09-28T04:00:37.863Z,97895.66
2022-09-28T04:01:14.201Z,97886.28
2022-09-28T04:01:51.362Z,97880.91
2022-09-28T04:02:22.887Z,97886.44
2022-09-28T04:02:54.369Z,97884.81
2022-09-28T04:03:25.844Z,97888.31
2022-09-28T04:03:57.231Z,97887.47
2022-09-28T04:04:28.645Z,97890.63
2022-09-28T04:05:00.013Z,97885.47
2022-09-28T04:05:31.485Z,97888.94
2022-09-28T04:06:02.836Z,97884.19
2022-09-28T04:06:34.238Z,97888.28
2022-09-28T04:07:05.624Z,97881.72
2022-09-28T04:07:36.957Z,97887.66
2022-09-28T04:08:08.275Z,97885.00
2022-09-28T04:08:39.688Z,97886.28
2022-09-28T04:09:11.210Z,97888.91
2022-09-28T04:09:42.620Z,97884.81
2022-09-28T04:10:14.013Z,97884.63
2022-09-28T04:10:45.532Z,97884.19
2022-09-28T04:11:16.970Z,97886.47
2022-09-28T04:12:03.331Z,97882.38
2022-09-28T04:12:35.625Z,97884.06
2022-09-28T04:13:06.989Z,97879.09
2022-09-28T04:13:38.421Z,97887.09
2022-09-28T04:14:09.752Z,97884.63
2022-09-28T04:14:41.104Z,97887.09
2022-09-28T04:15:12.499Z,97888.50
2022-09-28T04:15:43.957Z,97888.50
2022-09-28T04:16:15.455Z,97892.19
2022-09-28T04:16:46.892Z,97887.44
2022-09-28T04:17:18.304Z,97883.94
2022-09-28T04:17:49.723Z,97881.53
2022-09-28T04:18:21.150Z,97888.13
2022-09-28T04:18:52.552Z,97885.28
2022-09-28T04:19:23.995Z,97891.63
2022-09-28T04:19:55.335Z,97890.38
2022-09-28T04:20:26.787Z,97890.38
2022-09-28T04:21:01.442Z,97887.09
2022-09-28T04:21:32.938Z,97888.75
2022-09-28T04:22:04.306Z,97887.72
2022-09-28T04:22:35.605Z,97893.06
2022-09-28T04:23:06.949Z,97890.63
2022-09-28T04:23:39.054Z,97888.13
2022-09-28T04:24:10.485Z,97891.44
2022-09-28T04:24:41.954Z,97889.13
2022-09-28T04:25:13.362Z,97886.47
2022-09-28T04:25:44.724Z,97880.91
2022-09-28T04:26:17.377Z,97894.28
2022-09-28T04:26:48.792Z,97894.28
2022-09-28T04:27:20.159Z,97892.25
2022-09-28T04:27:51.478Z,97890.38
2022-09-28T04:28:22.856Z,97894.47
2022-09-28T04:28:54.344Z,97887.09
2022-09-28T04:29:25.717Z,97893.72
2022-09-28T04:29:57.107Z,97897.19
2022-09-28T04:30:28.502Z,97898.16
2022-09-28T04:30:59.873Z,97896.31
2022-09-28T04:31:31.363Z,97894.22
2022-09-28T04:32:02.911Z,97895.66
2022-09-28T04:32:34.303Z,97893.19
2022-09-28T04:33:05.692Z,97893.38
2022-09-28T04:33:37.082Z,97896.13
2022-09-28T04:34:08.692Z,97896.13
2022-09-28T04:34:43.868Z,97898.59
2022-09-28T04:35:16.343Z,97898.59
2022-09-28T04:35:47.759Z,97896.13
2022-09-28T04:36:19.251Z,97899.63
2022-09-28T04:36:50.663Z,97894.09
2022-09-28T04:37:22.049Z,97898.59
2022-09-28T04:37:53.466Z,97898.16
2022-09-28T04:38:48.473Z,97894.47
2022-09-28T04:39:16.533Z,97898.81
2022-09-28T04:39:48.685Z,97891.81
2022-09-28T04:40:20.192Z,97898.59
2022-09-28T04:40:51.628Z,97897.56
2022-09-28T04:41:23.053Z,97901.47
2022-09-28T04:41:54.407Z,97899.94
2022-09-28T04:42:25.736Z,97893.97
2022-09-28T04:42:57.129Z,97892.50
2022-09-28T04:43:28.544Z,97904.66
2022-09-28T04:44:00.013Z,97896.66
2022-09-28T04:44:31.399Z,97900.19
2022-09-28T04:45:02.790Z,97895.28
2022-09-28T04:45:34.346Z,97896.13
2022-09-28T04:46:05.909Z,97890.53
2022-09-28T04:46:37.331Z,97894.84
2022-09-28T04:47:08.758Z,97892.38
2022-09-28T04:47:40.185Z,97891.94
2022-09-28T04:48:11.626Z,97888.47
2022-09-28T04:48:43.018Z,97889.91
2022-09-28T04:49:14.462Z,97891.56
2022-09-28T04:49:45.977Z,97892.31
2022-09-28T04:50:17.480Z,97896.91
2022-09-28T04:50:58.618Z,97891.13
2022-09-28T04:51:32.931Z,97898.94
2022-09-28T04:52:04.737Z,97893.19
2022-09-28T04:52:36.692Z,97898.16
2022-09-28T04:53:08.128Z,97898.59
2022-09-28T04:53:39.558Z,97899.63
2022-09-28T04:54:10.942Z,97900.81
2022-09-28T04:54:42.366Z,97896.13
2022-09-28T04:55:13.883Z,97900.44
2022-09-28T04:55:45.282Z,97903.94
2022-09-28T04:56:17.035Z,97898.81
2022-09-28T04:56:48.394Z,97904.31
2022-09-28T04:57:19.777Z,97902.66
2022-09-28T04:57:51.194Z,97900.63
2022-09-28T04:58:22.633Z,97898.34
2022-09-28T04:58:53.963Z,97911.47
2022-09-28T04:59:25.353Z,97899.56
2022-09-28T04:59:56.741Z,97906.13
2022-09-28T05:00:28.922Z,97901.00
2022-09-28T05:01:00.988Z,97898.53
2022-09-28T05:01:32.517Z,97900.56
2022-09-28T05:02:04.317Z,97900.81
2022-09-28T05:02:35.755Z,97907.59
2022-09-28T05:03:07.156Z,97903.09
2022-09-28T05:03:38.600Z,97906.13
2022-09-28T05:04:10.002Z,97908.44
2022-09-28T05:04:41.405Z,97904.69
2022-09-28T05:05:12.991Z,97902.03
2022-09-28T05:05:44.835Z,97903.22
2022-09-28T05:06:16.320Z,97905.50
2022-09-28T05:06:47.718Z,97904.50
2022-09-28T05:07:19.143Z,97908.81
2022-09-28T05:07:50.510Z,97910.41
2022-09-28T05:08:21.842Z,97908.19
2022-09-28T05:08:53.260Z,97914.50
2022-09-28T05:09:24.607Z,97904.50
2022-09-28T05:09:55.982Z,97905.50
2022-09-28T05:10:27.390Z,97899.38
2022-09-28T05:11:03.250Z,97900.38
2022-09-28T05:11:34.604Z,97902.22
2022-09-28T05:12:06.119Z,97905.47
2022-09-28T05:12:37.519Z,97908.56
2022-09-28T05:13:09.193Z,97908.56
2022-09-28T05:13:41.579Z,97911.41
2022-09-28T05:14:13.051Z,97910.03
2022-09-28T05:14:44.494Z,97916.38
2022-09-28T05:15:15.866Z,97914.94
2022-09-28T05:15:47.294Z,97910.84
2022-09-28T05:16:18.855Z,97906.78
2022-09-28T05:16:50.362Z,97905.75
2022-09-28T05:17:21.805Z,97902.47
2022-09-28T05:17:53.225Z,97913.75
2022-09-28T05:18:24.794Z,97909.66
2022-09-28T05:18:56.416Z,97911.09
2022-09-28T05:19:27.732Z,97906.38
2022-09-28T05:19:59.069Z,97906.59
2022-09-28T05:20:30.496Z,97903.22
2022-09-28T05:21:01.864Z,97919.22
2022-09-28T05:21:33.267Z,97910.22
2022-09-28T05:22:04.793Z,97914.13
2022-09-28T05:22:36.231Z,97904.94
2022-09-28T05:23:09.162Z,97909.66
2022-09-28T05:23:40.623Z,97910.47
2022-09-28T05:24:12.116Z,97910.66
2022-09-28T05:24:43.450Z,97914.31
2022-09-28T05:25:14.997Z,97914.50
2022-09-28T05:25:46.383Z,97911.66
2022-09-28T05:26:18.014Z,97913.69
2022-09-28T05:26:49.492Z,97912.88
2022-09-28T05:27:21.123Z,97913.69
2022-09-28T05:27:54.702Z,97913.50
2022-09-28T05:28:26.652Z,97918.66
2022-09-28T05:28:58.088Z,97913.56
2022-09-28T05:29:32.275Z,97909.06
2022-09-28T05:30:04.376Z,97914.78
2022-09-28T05:30:35.769Z,97915.56
2022-09-28T05:31:07.257Z,97913.88
2022-09-28T05:31:38.748Z,97909.19
2022-09-28T05:32:10.276Z,97914.72
2022-09-28T05:32:41.994Z,97907.56
2022-09-28T05:33:13.363Z,97910.78
2022-09-28T05:33:44.769Z,97911.22
2022-09-28T05:34:16.331Z,97905.94
2022-09-28T05:34:47.736Z,97902.66
2022-09-28T05:35:19.154Z,97902.91
2022-09-28T05:35:54.429Z,97902.72
2022-09-28T05:36:27.367Z,97903.47
2022-09-28T05:36:58.729Z,97907.56
2022-09-28T05:37:30.125Z,97901.84
2022-09-28T05:38:04.621Z,97912.50
2022-09-28T05:38:36.073Z,97901.19
2022-09-28T05:39:07.505Z,97903.47
2022-09-28T05:39:38.912Z,97905.94
2022-09-28T05:40:10.580Z,97900.19
2022-09-28T05:40:42.307Z,97906.97
2022-09-28T05:41:13.658Z,97913.31
2022-09-28T05:41:45.038Z,97906.53
2022-09-28T05:42:16.396Z,97909.00
2022-09-28T05:42:47.862Z,97901.47
2022-09-28T05:43:19.332Z,97903.28
2022-09-28T05:43:50.962Z,97903.28
2022-09-28T05:44:22.371Z,97908.81
2022-09-28T05:44:53.794Z,97911.22
2022-09-28T05:45:25.364Z,97912.88
2022-09-28T05:45:58.510Z,97909.19
2022-09-28T05:46:30.098Z,97912.88
2022-09-28T05:47:01.462Z,97912.25
2022-09-28T05:47:36.861Z,97909.59
2022-09-28T05:48:08.232Z,97916.13
2022-09-28T05:48:39.634Z,97909.59
2022-09-28T05:49:11.145Z,97903.03
2022-09-28T05:49:42.519Z,97912.88
2022-09-28T05:50:13.874Z,97905.28
2022-09-28T05:50:49.888Z,97906.72
2022-09-28T05:51:21.610Z,97910.84
2022-09-28T05:51:52.959Z,97913.50
2022-09-28T05:52:24.359Z,97905.09
2022-09-28T05:52:59.217Z,97910.22
2022-09-28T05:53:30.652Z,97914.94
2022-09-28T05:54:06.026Z,97912.88
2022-09-28T05:54:37.844Z,97905.13
2022-09-28T05:55:09.443Z,97909.66
2022-09-28T05:55:40.906Z,97905.31
2022-09-28T05:56:12.389Z,97910.03
2022-09-28T05:56:43.781Z,97911.59
2022-09-28T05:57:15.157Z,97914.94
2022-09-28T05:57:46.569Z,97910.41
2022-09-28T05:58:18.025Z,97901.84
2022-09-28T05:58:49.422Z,97910.84
2022-09-28T05:59:20.824Z,97918.66
2022-09-28T05:59:52.207Z,97907.59
2022-09-28T06:00:23.591Z,97908.44
2022-09-28T06:00:55.405Z,97911.09
2022-09-28T06:01:27.110Z,97910.72
2022-09-28T06:01:58.607Z,97909.06
2022-09-28T06:02:30.088Z,97909.06
2022-09-28T06:03:08.874Z,97910.91
2022-09-28T06:03:40.928Z,97908.44
2022-09-28T06:04:12.346Z,97919.09
2022-09-28T06:04:43.686Z,97918.66
2022-09-28T06:05:15.108Z,97913.88
2022-09-28T06:05:46.464Z,97910.47
2022-09-28T06:06:17.792Z,97912.44
2022-09-28T06:06:49.196Z,97912.50
2022-09-28T06:07:20.563Z,97913.75
2022-09-28T06:07:52.206Z,97910.84
2022-09-28T06:08:23.584Z,97909.47
2022-09-28T06:08:54.915Z,97916.19
2022-09-28T06:09:26.324Z,97912.88
2022-09-28T06:09:57.660Z,97912.88
2022-09-28T06:10:29.172Z,97916.56
2022-09-28T06:11:00.784Z,97915.78
2022-09-28T06:11:32.202Z,97917.66
2022-09-28T06:12:03.658Z,97909.59
2022-09-28T06:12:35.045Z,97918.47
2022-09-28T06:13:06.507Z,97918.66
2022-09-28T06:13:37.976Z,97914.13
2022-09-28T06:14:09.326Z,97909.66
2022-09-28T06:14:40.667Z,97914.50
2022-09-28T06:15:11.984Z,97910.41
2022-09-28T06:15:43.351Z,97911.66
2022-09-28T06:16:15.152Z,97911.09
2022-09-28T06:16:46.615Z,97920.75
2022-09-28T06:17:17.948Z,97911.94
2022-09-28T06:17:55.112Z,97915.03
2022-09-28T06:18:26.481Z,97914.19
2022-09-28T06:18:57.816Z,97917.50
2022-09-28T06:19:29.183Z,97925.91
2022-09-28T06:20:00.619Z,97913.19
2022-09-28T06:20:33.180Z,97919.94
2022-09-28T06:21:04.650Z,97922.38
2022-09-28T06:21:36.129Z,97919.72
2022-09-28T06:22:07.582Z,97922.38
2022-09-28T06:22:39.028Z,97918.91
2022-09-28T06:23:10.925Z,97919.53
2022-09-28T06:23:46.893Z,97921.81
2022-09-28T06:24:20.316Z,97921.81
2022-09-28T06:24:51.711Z,97917.03
2022-09-28T06:25:23.163Z,97923.22
2022-09-28T06:25:54.495Z,97920.38
2022-09-28T06:26:25.966Z,97925.69
2022-09-28T06:26:57.360Z,97931.84
2022-09-28T06:27:28.735Z,97923.84
2022-09-28T06:28:00.674Z,97934.31
2022-09-28T06:28:32.016Z,97930.66
2022-09-28T06:29:03.530Z,97933.03
2022-09-28T06:29:34.883Z,97937.50
2022-09-28T06:30:06.587Z,97934.25